createdAt,value
2022-10-19T00:02:24.582Z,19.63
2022-10-19T00:04:51.386Z,19.63
2022-10-19T00:07:18.065Z,19.58
2022-10-19T00:09:44.862Z,19.53
2022-10-19T00:12:13.138Z,19.48
2022-10-19T00:14:40.029Z,19.46
2022-10-19T00:17:06.704Z,19.51
2022-10-19T00:19:33.945Z,19.52
2022-10-19T00:22:00.546Z,19.47
2022-10-19T00:24:27.377Z,19.50
2022-10-19T00:26:54.006Z,19.55
2022-10-19T00:29:20.644Z,19.48
2022-10-19T00:31:50.354Z,19.48
2022-10-19T00:34:17.799Z,19.48
2022-10-19T00:36:44.998Z,19.48
2022-10-19T00:39:14.517Z,19.46
2022-10-19T00:41:41.787Z,19.42
2022-10-19T00:44:15.738Z,19.35
2022-10-19T00:46:45.451Z,19.30
2022-10-19T00:49:26.223Z,19.22
2022-10-19T00:52:04.435Z,19.19
2022-10-19T00:54:33.425Z,19.21
2022-10-19T00:57:00.434Z,19.15
2022-10-19T00:59:31.656Z,19.11
2022-10-19T01:02:00.592Z,19.05
2022-10-19T01:04:30.255Z,18.99
2022-10-19T01:06:58.221Z,18.93
2022-10-19T01:09:24.842Z,18.88
2022-10-19T01:11:57.279Z,18.82
2022-10-19T01:14:32.770Z,18.78
2022-10-19T01:17:17.385Z,18.71
2022-10-19T01:19:50.758Z,18.67
2022-10-19T01:22:29.285Z,18.70
2022-10-19T01:25:30.224Z,18.67
2022-10-19T01:28:24.916Z,18.68
2022-10-19T01:31:22.545Z,18.67
2022-10-19T01:34:09.741Z,18.65
2022-10-19T01:36:36.256Z,18.58
2022-10-19T01:39:11.466Z,18.59
2022-10-19T01:41:50.163Z,18.55
2022-10-19T01:44:22.972Z,18.52
2022-10-19T01:47:00.409Z,18.50
2022-10-19T01:49:43.064Z,18.40
2022-10-19T01:52:13.556Z,18.37
2022-10-19T01:54:46.754Z,18.35
2022-10-19T01:57:19.966Z,18.30
2022-10-19T01:59:48.835Z,18.30
2022-10-19T02:02:17.062Z,18.31
2022-10-19T02:04:45.261Z,18.31
2022-10-19T02:07:12.421Z,18.33
2022-10-19T02:09:39.107Z,18.33
2022-10-19T02:12:09.919Z,18.37
2022-10-19T02:14:45.019Z,18.36
2022-10-19T02:17:15.813Z,18.33
2022-10-19T02:19:42.958Z,18.28
2022-10-19T02:22:11.495Z,18.24
2022-10-19T02:24:38.243Z,18.23
2022-10-19T02:27:08.055Z,18.26
2022-10-19T02:29:36.872Z,18.33
2022-10-19T02:32:04.151Z,18.36
2022-10-19T02:34:31.548Z,18.37
2022-10-19T02:36:58.668Z,18.37
2022-10-19T02:39:25.658Z,18.39
2022-10-19T02:42:11.118Z,18.39
2022-10-19T02:44:47.544Z,18.38
2022-10-19T02:47:19.651Z,18.38
2022-10-19T02:49:47.655Z,18.43
2022-10-19T02:52:15.001Z,18.52
2022-10-19T02:54:43.961Z,18.58
2022-10-19T02:57:28.484Z,18.53
2022-10-19T02:59:55.106Z,18.56
2022-10-19T03:02:21.752Z,18.57
2022-10-19T03:07:21.379Z,18.51
2022-10-19T03:09:48.241Z,18.53
2022-10-19T03:12:15.406Z,18.57
2022-10-19T03:14:42.467Z,18.57
2022-10-19T03:17:09.832Z,18.59
2022-10-19T03:19:37.517Z,18.61
2022-10-19T03:22:05.027Z,18.64
2022-10-19T03:24:32.128Z,18.63
2022-10-19T03:26:58.795Z,18.67
2022-10-19T03:29:25.496Z,18.79
2022-10-19T03:31:52.285Z,18.79
2022-10-19T03:34:18.983Z,18.84
2022-10-19T03:36:45.736Z,18.80
2022-10-19T03:39:14.613Z,18.84
2022-10-19T03:41:42.250Z,18.83
2022-10-19T03:44:10.646Z,18.87
2022-10-19T03:46:38.442Z,18.90
2022-10-19T03:49:05.425Z,18.92
2022-10-19T03:51:33.128Z,18.91
2022-10-19T03:54:05.533Z,18.90
2022-10-19T03:56:33.380Z,18.89
2022-10-19T03:59:01.546Z,18.92
2022-10-19T04:01:34.671Z,18.93
2022-10-19T04:04:07.106Z,18.91
2022-10-19T04:06:36.707Z,18.91
2022-10-19T04:09:05.341Z,18.97
2022-10-19T04:11:33.764Z,19.04
2022-10-19T04:14:01.186Z,18.96
2022-10-19T04:16:29.806Z,19.04
2022-10-19T04:18:57.205Z,19.08
2022-10-19T04:21:28.954Z,19.07
2022-10-19T04:24:10.732Z,19.09
2022-10-19T04:26:43.285Z,19.11
2022-10-19T04:29:10.730Z,19.17
2022-10-19T04:31:38.422Z,19.21
2022-10-19T04:34:05.935Z,19.24
2022-10-19T04:36:33.037Z,19.28
2022-10-19T04:38:59.691Z,19.30
2022-10-19T04:41:26.501Z,19.28
2022-10-19T04:44:01.521Z,19.27
2022-10-19T04:46:29.623Z,19.31
2022-10-19T04:48:57.695Z,19.32
2022-10-19T04:51:25.418Z,19.28
2022-10-19T04:53:55.572Z,19.29
2022-10-19T04:56:26.656Z,19.30
2022-10-19T04:58:57.903Z,19.26
2022-10-19T05:01:26.709Z,19.13
2022-10-19T05:03:58.585Z,19.10
2022-10-19T05:06:25.976Z,19.05
2022-10-19T05:08:52.680Z,19.05
2022-10-19T05:11:19.715Z,19.06
2022-10-19T05:13:47.272Z,18.97
2022-10-19T05:16:17.862Z,18.58
2022-10-19T05:18:49.923Z,18.74
2022-10-19T05:21:18.220Z,18.72
2022-10-19T05:23:45.276Z,18.59
2022-10-19T05:26:17.746Z,18.52
2022-10-19T05:28:49.255Z,18.58
2022-10-19T05:31:18.532Z,18.65
2022-10-19T05:33:45.737Z,18.68
2022-10-19T05:36:15.233Z,18.66
2022-10-19T05:38:42.729Z,18.35
2022-10-19T05:41:10.073Z,18.32
2022-10-19T05:43:36.801Z,18.30
2022-10-19T05:46:11.532Z,18.36
2022-10-19T05:48:39.063Z,18.18
2022-10-19T05:51:08.137Z,18.24
2022-10-19T05:53:35.075Z,18.22
2022-10-19T05:56:04.509Z,18.31
2022-10-19T05:58:31.340Z,18.46
2022-10-19T06:00:59.451Z,18.29
2022-10-19T06:03:26.560Z,18.36
2022-10-19T06:05:54.497Z,18.28
2022-10-19T06:08:22.685Z,18.18
2022-10-19T06:10:50.454Z,18.20
2022-10-19T06:13:18.538Z,18.13
2022-10-19T06:15:45.220Z,18.25
2022-10-19T06:18:13.017Z,18.01
2022-10-19T06:20:41.573Z,18.13
2022-10-19T06:23:08.893Z,18.24
2022-10-19T06:25:36.103Z,18.19
2022-10-19T06:28:03.729Z,18.11
2022-10-19T06:30:30.525Z,18.06
2022-10-19T06:32:59.221Z,18.07
2022-10-19T06:35:26.023Z,18.09
2022-10-19T06:37:52.725Z,18.26
2022-10-19T06:40:19.602Z,18.07
2022-10-19T06:42:46.285Z,18.23
2022-10-19T06:45:12.877Z,17.80
2022-10-19T06:47:39.671Z,18.05
2022-10-19T06:50:06.986Z,18.15
2022-10-19T06:52:35.506Z,18.05
2022-10-19T06:55:02.317Z,18.11
2022-10-19T06:57:29.396Z,18.35
2022-10-19T06:59:56.049Z,18.26
2022-10-19T07:02:22.753Z,18.52
2022-10-19T07:04:49.519Z,18.53
2022-10-19T07:07:16.165Z,18.34
2022-10-19T07:09:42.792Z,18.35
2022-10-19T07:12:10.787Z,18.69
2022-10-19T07:14:39.567Z,18.84
2022-10-19T07:17:11.922Z,18.74
2022-10-19T07:19:38.677Z,19.08
2022-10-19T07:22:05.390Z,19.12
2022-10-19T07:24:32.033Z,19.19
2022-10-19T07:26:58.777Z,19.31
2022-10-19T07:29:25.512Z,19.44
2022-10-19T07:31:52.149Z,19.35
2022-10-19T07:34:18.990Z,19.57
2022-10-19T07:36:48.000Z,19.36
2022-10-19T07:39:16.873Z,19.22
2022-10-19T07:41:44.617Z,19.28
2022-10-19T07:44:14.793Z,19.39
2022-10-19T07:46:42.981Z,19.46
2022-10-19T07:49:18.704Z,19.41
2022-10-19T07:51:46.698Z,19.41
2022-10-19T07:54:13.718Z,19.49
2022-10-19T07:56:40.892Z,19.41
2022-10-19T07:59:07.589Z,19.29
2022-10-19T08:01:41.486Z,19.34
2022-10-19T08:06:55.166Z,19.43
2022-10-19T08:09:51.527Z,19.49
2022-10-19T08:12:13.847Z,19.48
2022-10-19T08:14:41.721Z,19.55
2022-10-19T08:17:11.453Z,19.56
2022-10-19T08:19:43.055Z,19.67
2022-10-19T08:22:10.203Z,19.76
2022-10-19T08:24:36.878Z,19.77
2022-10-19T08:27:03.711Z,19.67
2022-10-19T08:29:31.519Z,19.64
2022-10-19T08:31:59.152Z,19.75
2022-10-19T08:34:26.260Z,19.55
2022-10-19T08:36:52.890Z,19.38
2022-10-19T08:39:19.912Z,19.47
2022-10-19T08:42:05.862Z,19.55
2022-10-19T08:45:03.566Z,19.77
2022-10-19T08:47:53.735Z,19.45
2022-10-19T08:50:30.848Z,19.27
2022-10-19T08:53:07.608Z,19.19
2022-10-19T08:55:44.664Z,19.54
2022-10-19T08:58:42.168Z,19.67
2022-10-19T09:01:52.061Z,19.91
2022-10-19T09:04:33.077Z,19.77
2022-10-19T09:07:09.454Z,20.18
2022-10-19T09:12:24.823Z,20.27
2022-10-19T09:15:02.834Z,20.01
2022-10-19T09:17:31.044Z,20.19
2022-10-19T09:20:13.386Z,20.30
2022-10-19T09:22:41.936Z,20.31
2022-10-19T09:25:18.399Z,20.18
2022-10-19T09:27:48.724Z,20.10
2022-10-19T09:30:21.567Z,20.27
2022-10-19T09:32:51.956Z,20.18
2022-10-19T09:35:33.788Z,20.45
2022-10-19T09:38:01.077Z,20.51
2022-10-19T09:40:29.987Z,20.49
2022-10-19T09:42:58.228Z,20.71
2022-10-19T09:46:02.480Z,20.68
2022-10-19T09:48:41.883Z,20.69
2022-10-19T09:51:14.764Z,20.66
2022-10-19T09:53:46.115Z,20.58
2022-10-19T09:56:19.965Z,20.78
2022-10-19T09:58:49.971Z,20.97
2022-10-19T10:01:39.951Z,21.20
2022-10-19T10:04:14.926Z,21.27
2022-10-19T10:06:44.297Z,21.09
2022-10-19T10:09:19.470Z,21.21
2022-10-19T10:11:48.993Z,21.10
2022-10-19T10:14:23.232Z,21.24
2022-10-19T10:16:56.156Z,20.96
2022-10-19T10:19:28.623Z,21.09
2022-10-19T10:21:57.811Z,20.90
2022-10-19T10:24:29.979Z,21.19
2022-10-19T10:26:59.508Z,21.40
2022-10-19T10:29:28.659Z,21.37
2022-10-19T10:32:00.630Z,21.71
2022-10-19T10:34:49.351Z,21.78
2022-10-19T10:37:23.050Z,21.94
2022-10-19T10:39:55.854Z,22.01
2022-10-19T10:42:46.055Z,22.10
2022-10-19T10:45:43.792Z,21.94
2022-10-19T10:48:41.861Z,21.74
2022-10-19T10:51:40.335Z,21.70
2022-10-19T10:54:17.035Z,21.57
2022-10-19T10:56:55.178Z,21.44
2022-10-19T10:59:27.697Z,21.49
2022-10-19T11:02:36.443Z,21.83
2022-10-19T11:05:06.958Z,21.94
2022-10-19T11:07:35.918Z,22.05
2022-10-19T11:10:33.306Z,22.36
2022-10-19T11:13:29.385Z,24.33
2022-10-19T11:16:02.607Z,25.49
2022-10-19T11:18:53.516Z,26.26
2022-10-19T11:22:06.858Z,26.32
2022-10-19T11:24:55.236Z,25.51
2022-10-19T11:27:37.185Z,24.53
2022-10-19T11:30:14.868Z,24.02
2022-10-19T11:33:03.575Z,23.55
2022-10-19T11:35:49.521Z,23.33
2022-10-19T11:38:34.807Z,23.51
2022-10-19T11:41:30.862Z,23.30
2022-10-19T11:44:21.007Z,23.29
2022-10-19T11:47:06.040Z,23.43
2022-10-19T11:52:59.755Z,23.58
2022-10-19T11:55:33.219Z,23.25
2022-10-19T11:58:07.384Z,23.37
2022-10-19T12:00:48.720Z,23.38
2022-10-19T12:03:25.777Z,23.49
2022-10-19T12:06:09.231Z,23.22
2022-10-19T12:09:03.800Z,23.45
2022-10-19T12:11:33.275Z,23.64
2022-10-19T12:14:04.864Z,23.57
2022-10-19T12:16:44.181Z,23.73
2022-10-19T12:19:36.028Z,24.07
2022-10-19T12:22:05.459Z,24.07
2022-10-19T12:24:34.104Z,23.91
2022-10-19T12:27:01.216Z,23.87
2022-10-19T12:29:32.265Z,23.99
2022-10-19T12:32:02.183Z,23.60
2022-10-19T12:34:52.092Z,23.51
2022-10-19T12:37:28.277Z,23.33
2022-10-19T12:40:24.053Z,23.38
2022-10-19T12:42:56.821Z,23.09
2022-10-19T12:45:38.691Z,23.24
2022-10-19T12:48:25.621Z,23.46
2022-10-19T12:50:57.069Z,23.55
2022-10-19T12:53:40.444Z,23.65
2022-10-19T12:56:09.747Z,23.70
2022-10-19T12:58:46.735Z,23.55
2022-10-19T13:01:42.636Z,23.44
2022-10-19T13:04:16.644Z,23.32
2022-10-19T13:06:52.343Z,23.11
2022-10-19T13:09:31.263Z,22.77
2022-10-19T13:12:16.155Z,22.81
2022-10-19T13:14:55.382Z,22.76
2022-10-19T13:17:34.308Z,22.79
2022-10-19T13:20:13.493Z,22.91
2022-10-19T13:22:40.229Z,22.85
2022-10-19T13:25:40.306Z,23.04
2022-10-19T13:28:06.864Z,23.26
2022-10-19T13:30:37.024Z,23.11
2022-10-19T13:33:22.622Z,23.20
2022-10-19T13:35:49.485Z,22.96
2022-10-19T13:38:16.045Z,22.79
2022-10-19T13:40:48.871Z,22.72
2022-10-19T13:43:21.144Z,22.76
2022-10-19T13:46:00.641Z,22.94
2022-10-19T13:48:33.839Z,23.10
2022-10-19T13:51:08.082Z,23.08
2022-10-19T13:53:50.523Z,23.14
2022-10-19T13:56:55.377Z,23.05
2022-10-19T14:00:01.478Z,23.07
2022-10-19T14:02:50.858Z,23.15
2022-10-19T14:05:20.317Z,23.16
2022-10-19T14:08:05.516Z,22.87
2022-10-19T14:10:43.477Z,23.16
2022-10-19T14:13:22.269Z,23.22
2022-10-19T14:15:57.812Z,23.35
2022-10-19T14:18:29.459Z,23.24
2022-10-19T14:20:57.137Z,23.31
2022-10-19T14:23:28.424Z,23.33
2022-10-19T14:26:05.401Z,23.32
2022-10-19T14:28:33.572Z,23.22
2022-10-19T14:31:02.687Z,23.04
2022-10-19T14:33:33.670Z,22.96
2022-10-19T14:36:00.552Z,22.85
2022-10-19T14:38:40.217Z,22.92
2022-10-19T14:41:19.721Z,22.41
2022-10-19T14:43:46.353Z,22.52
2022-10-19T14:46:16.051Z,22.75
2022-10-19T14:48:48.689Z,22.66
2022-10-19T14:51:40.984Z,22.59
2022-10-19T14:54:07.614Z,22.41
2022-10-19T14:56:52.163Z,22.40
2022-10-19T14:59:26.832Z,22.23
2022-10-19T15:01:57.177Z,22.18
2022-10-19T15:04:34.242Z,22.14
2022-10-19T15:07:04.042Z,21.92
2022-10-19T15:09:47.699Z,21.49
2022-10-19T15:12:17.873Z,21.65
2022-10-19T15:14:45.970Z,21.35
2022-10-19T15:17:31.554Z,21.53
2022-10-19T15:20:02.809Z,21.43
2022-10-19T15:22:31.018Z,21.42
2022-10-19T15:25:06.556Z,21.38
2022-10-19T15:27:39.030Z,21.14
2022-10-19T15:30:17.960Z,21.11
2022-10-19T15:32:47.358Z,21.09
2022-10-19T15:35:34.411Z,20.68
2022-10-19T15:38:15.831Z,20.78
2022-10-19T15:40:44.441Z,20.67
2022-10-19T15:43:29.414Z,20.45
2022-10-19T15:46:08.595Z,20.53
2022-10-19T15:48:41.393Z,20.48
2022-10-19T15:51:22.989Z,20.59
2022-10-19T15:53:59.211Z,20.58
2022-10-19T15:56:28.136Z,20.51
2022-10-19T15:58:57.762Z,20.57
2022-10-19T16:01:27.079Z,20.47
2022-10-19T16:03:54.542Z,20.52
2022-10-19T16:06:24.671Z,20.39
2022-10-19T16:08:51.454Z,20.47
2022-10-19T16:11:20.334Z,20.47
2022-10-19T16:13:47.259Z,20.42
2022-10-19T16:16:21.807Z,20.40
2022-10-19T16:18:48.512Z,20.31
2022-10-19T16:21:16.786Z,20.33
2022-10-19T16:23:43.426Z,20.19
2022-10-19T16:26:13.475Z,20.19
2022-10-19T16:28:40.400Z,20.04
2022-10-19T16:31:07.283Z,20.07
2022-10-19T16:33:33.911Z,20.04
2022-10-19T16:36:05.170Z,19.93
2022-10-19T16:38:31.923Z,19.96
2022-10-19T16:41:03.708Z,19.75
2022-10-19T16:43:30.851Z,19.81
2022-10-19T16:45:58.244Z,19.83
2022-10-19T16:48:25.744Z,19.68
2022-10-19T16:51:17.898Z,19.71
2022-10-19T16:53:44.547Z,19.60
2022-10-19T16:56:13.392Z,19.62
2022-10-19T16:58:40.736Z,19.63
2022-10-19T17:01:11.887Z,19.63
2022-10-19T17:03:38.564Z,19.62
2022-10-19T17:06:07.111Z,19.42
2022-10-19T17:09:14.347Z,19.52
2022-10-19T17:11:24.719Z,19.47
2022-10-19T17:13:53.675Z,19.50
2022-10-19T17:16:21.673Z,19.46
2022-10-19T17:18:49.258Z,19.49
2022-10-19T17:21:19.725Z,19.52
2022-10-19T17:23:46.949Z,19.43
2022-10-19T17:26:13.946Z,19.25
2022-10-19T17:28:40.858Z,19.27
2022-10-19T17:31:10.170Z,19.28
2022-10-19T17:33:37.495Z,19.22
2022-10-19T17:36:16.294Z,19.31
2022-10-19T17:38:43.022Z,19.22
2022-10-19T17:41:12.817Z,18.98
2022-10-19T17:43:41.459Z,19.11
2022-10-19T17:46:10.700Z,19.00
2022-10-19T17:48:39.352Z,18.73
2022-10-19T17:51:14.023Z,18.80
2022-10-19T17:53:40.709Z,18.53
2022-10-19T17:56:08.164Z,18.68
2022-10-19T17:58:39.063Z,18.64
2022-10-19T18:01:07.924Z,18.62
2022-10-19T18:03:37.631Z,18.81
2022-10-19T18:06:10.690Z,18.65
2022-10-19T18:08:42.992Z,18.59
2022-10-19T18:11:12.475Z,18.70
2022-10-19T18:13:39.788Z,18.70
2022-10-19T18:16:12.951Z,18.60
2022-10-19T18:18:41.987Z,18.58
2022-10-19T18:21:11.562Z,18.69
2022-10-19T18:23:38.829Z,18.61
2022-10-19T18:26:14.892Z,18.62
2022-10-19T18:28:42.471Z,18.62
2022-10-19T18:31:11.843Z,18.72
2022-10-19T18:33:39.718Z,18.64
2022-10-19T18:36:08.233Z,18.63
2022-10-19T18:38:35.021Z,18.35
2022-10-19T18:41:06.681Z,18.28
2022-10-19T18:43:33.590Z,18.32
2022-10-19T18:46:01.004Z,18.47
2022-10-19T18:48:29.259Z,18.53
2022-10-19T18:50:56.461Z,18.65
2022-10-19T18:53:23.831Z,18.45
2022-10-19T18:56:01.702Z,18.21
2022-10-19T18:58:31.537Z,18.30
2022-10-19T19:01:09.044Z,18.34
2022-10-19T19:03:37.616Z,18.39
2022-10-19T19:06:10.063Z,18.42
2022-10-19T19:08:36.887Z,18.36
2022-10-19T19:11:18.054Z,18.28
2022-10-19T19:14:15.873Z,18.07
2022-10-19T19:16:44.255Z,18.10
2022-10-19T19:19:13.006Z,18.24
2022-10-19T19:21:43.438Z,18.32
2022-10-19T19:24:12.649Z,18.31
2022-10-19T19:26:41.641Z,18.18
2022-10-19T19:29:08.461Z,18.26
2022-10-19T19:31:35.062Z,18.33
2022-10-19T19:34:05.696Z,18.29
2022-10-19T19:36:32.460Z,18.13
2022-10-19T19:38:59.611Z,18.09
2022-10-19T19:41:26.404Z,18.20
2022-10-19T19:43:53.079Z,18.16
2022-10-19T19:46:20.185Z,18.10
2022-10-19T19:48:48.024Z,17.99
2022-10-19T19:51:20.361Z,18.04
2022-10-19T19:53:47.981Z,17.88
2022-10-19T19:56:16.409Z,17.96
2022-10-19T19:58:44.371Z,17.94
2022-10-19T20:01:13.872Z,17.90
2022-10-19T20:03:41.479Z,17.97
2022-10-19T20:06:09.516Z,17.96
2022-10-19T20:08:36.892Z,17.93
2022-10-19T20:11:09.733Z,17.96
2022-10-19T20:13:36.777Z,18.02
2022-10-19T20:16:08.480Z,17.72
2022-10-19T20:18:35.446Z,17.85
2022-10-19T20:21:03.552Z,17.81
2022-10-19T20:23:30.815Z,17.76
2022-10-19T20:25:57.574Z,17.60
2022-10-19T20:28:25.291Z,17.69
2022-10-19T20:31:06.826Z,17.69
2022-10-19T20:33:35.613Z,17.73
2022-10-19T20:36:11.058Z,17.78
2022-10-19T20:38:39.304Z,17.49
2022-10-19T20:41:08.608Z,17.51
2022-10-19T20:43:36.997Z,17.53
2022-10-19T20:46:05.782Z,17.56
2022-10-19T20:48:32.985Z,17.58
2022-10-19T20:51:13.903Z,17.59
2022-10-19T20:53:40.966Z,17.43
2022-10-19T20:56:10.169Z,17.41
2022-10-19T20:58:42.453Z,17.59
2022-10-19T21:01:18.476Z,17.73
2022-10-19T21:03:46.975Z,17.53
2022-10-19T21:06:13.902Z,17.60
2022-10-19T21:08:40.659Z,17.61
2022-10-19T21:11:18.766Z,17.72
2022-10-19T21:13:46.088Z,17.73
2022-10-19T21:16:18.088Z,17.45
2022-10-19T21:18:46.358Z,17.56
2022-10-19T21:21:21.123Z,17.32
2022-10-19T21:23:49.987Z,17.35
2022-10-19T21:26:17.329Z,17.51
2022-10-19T21:28:48.997Z,17.26
2022-10-19T21:31:17.165Z,17.48
2022-10-19T21:33:44.132Z,17.32
2022-10-19T21:36:12.384Z,17.44
2022-10-19T21:38:39.229Z,17.38
2022-10-19T21:41:08.336Z,17.33
2022-10-19T21:43:35.494Z,17.46
2022-10-19T21:46:03.771Z,17.46
2022-10-19T21:48:31.014Z,17.31
2022-10-19T21:50:57.789Z,17.40
2022-10-19T21:53:24.785Z,17.33
2022-10-19T21:55:53.155Z,17.33
2022-10-19T21:58:21.916Z,17.52
2022-10-19T22:00:49.223Z,17.47
2022-10-19T22:03:18.231Z,17.39
2022-10-19T22:05:52.195Z,17.43
2022-10-19T22:08:18.964Z,17.52
2022-10-19T22:10:45.622Z,17.44
2022-10-19T22:13:12.357Z,17.43
2022-10-19T22:15:40.028Z,17.20
2022-10-19T22:18:07.426Z,17.32
2022-10-19T22:20:39.123Z,17.29
2022-10-19T22:23:07.693Z,17.07
2022-10-19T22:25:35.330Z,17.15
2022-10-19T22:28:02.317Z,17.04
2022-10-19T22:30:29.041Z,17.20
2022-10-19T22:32:55.925Z,17.30
2022-10-19T22:35:22.596Z,17.23
2022-10-19T22:37:49.277Z,17.19
2022-10-19T22:40:15.896Z,17.31
2022-10-19T22:42:43.042Z,17.29
2022-10-19T22:45:09.679Z,17.24
2022-10-19T22:47:36.330Z,17.32
2022-10-19T22:50:03.572Z,17.22
2022-10-19T22:52:30.210Z,17.29
2022-10-19T22:54:56.858Z,17.22
2022-10-19T22:57:23.481Z,17.32
2022-10-19T22:59:50.120Z,17.35
2022-10-19T23:02:16.776Z,17.41
2022-10-19T23:04:43.472Z,17.39
2022-10-19T23:09:36.644Z,17.40
2022-10-19T23:12:03.492Z,17.33
2022-10-19T23:14:30.174Z,17.38
2022-10-19T23:16:56.841Z,17.35
2022-10-19T23:19:23.454Z,17.38
2022-10-19T23:21:50.116Z,17.39
2022-10-19T23:24:16.795Z,17.39
2022-10-19T23:26:43.442Z,17.35
2022-10-19T23:29:10.564Z,17.34
2022-10-19T23:31:38.133Z,17.33
2022-10-19T23:34:04.732Z,17.30
2022-10-19T23:36:31.338Z,17.34
2022-10-19T23:38:58.725Z,17.19
2022-10-19T23:41:25.581Z,17.22
2022-10-19T23:43:52.598Z,17.29
2022-10-19T23:46:19.641Z,17.03
2022-10-19T23:48:46.304Z,17.10
2022-10-19T23:51:16.441Z,17.12
2022-10-19T23:53:45.580Z,17.22
2022-10-19T23:56:15.608Z,17.12
2022-10-19T23:58:43.269Z,17.05
